Time;durP1;ratioP1;P1;durP2;ratioP2;P2;SDS_P1;SDS_P2;PMS_P1;PMS_P2;Temp;Humidity;BMP_temperature;BMP_pressure;BME280_temperature;BME280_humidity;BME280_pressure;Samples;Min_cycle;Max_cycle;Signal;HPM_P1;HPM_P2
2022/01/23 00:00:37;;;;;;;3.53;2.22;;;;;;;;;;7330028;19;161807;-15
2022/01/23 00:03:14;;;;;;;2.25;1.90;;;;;;;;;;7331311;19;162632;-19
2022/01/23 00:05:47;;;;;;;5.45;2.22;;;;;;;;;;7329742;19;153988;-14
2022/01/23 00:08:23;;;;;;;2.22;1.85;;;;;;;;;;7327179;19;153754;-14
2022/01/23 00:10:55;;;;;;;4.07;1.90;;;;;;;;;;7331276;19;162025;-13
2022/01/23 00:13:34;;;;;;;2.40;1.93;;;;;;;;;;7330162;19;162438;-14
2022/01/23 00:18:49;;;;;;;2.10;1.92;;;;;;;;;;7331074;19;153547;-14
2022/01/23 00:21:21;;;;;;;2.30;2.10;;;;;;;;;;7331883;19;161810;-15
2022/01/23 00:32:04;;;;;;;2.63;2.13;;;;;;;;;;7333914;19;162131;-13
2022/01/23 00:34:36;;;;;;;2.28;1.70;;;;;;;;;;7334026;19;162759;-14
2022/01/23 00:37:09;;;;;;;2.00;1.90;;;;;;;;;;7334870;19;154010;-15
2022/01/23 00:39:43;;;;;;;2.15;1.95;;;;;;;;;;7333925;19;153528;-14
2022/01/23 00:42:14;;;;;;;2.72;2.25;;;;;;;;;;7332156;19;161836;-14
2022/01/23 00:44:49;;;;;;;3.47;2.28;;;;;;;;;;7331646;19;162384;-15
2022/01/23 00:47:20;;;;;;;5.32;2.30;;;;;;;;;;7334014;19;154035;-15
2022/01/23 00:49:52;;;;;;;5.15;2.80;;;;;;;;;;7334532;19;153520;-13
2022/01/23 10:31:06;;;;;;;5.07;1.98;;;;;;;;;;7368413;19;132646;-14
2022/01/23 10:33:40;;;;;;;2.33;1.67;;;;;;;;;;7364216;19;153508;-14
2022/01/23 10:36:14;;;;;;;3.97;1.90;;;;;;;;;;7363762;19;161802;-15
2022/01/23 10:38:54;;;;;;;3.33;2.20;;;;;;;;;;7360627;19;162538;-15
2022/01/23 10:41:44;;;;;;;3.53;1.80;;;;;;;;;;7363552;19;153857;-15
2022/01/23 10:49:58;;;;;;;1.60;1.50;;;;;;;;;;7363004;19;162625;-16
2022/01/23 10:52:30;;;;;;;;;;;;;;;;;;7363728;19;154000;-15
2022/01/23 10:55:01;;;;;;;1.85;1.45;;;;;;;;;;7365867;19;153264;-16
2022/01/23 10:57:38;;;;;;;1.80;1.45;;;;;;;;;;7365659;19;161867;-16
2022/01/23 11:00:12;;;;;;;2.65;1.58;;;;;;;;;;7364984;19;162400;-15
2022/01/23 11:02:47;;;;;;;1.55;1.45;;;;;;;;;;7367285;19;154162;-15
2022/01/23 11:05:19;;;;;;;3.90;1.63;;;;;;;;;;7365058;19;153402;-15
2022/01/23 11:07:52;;;;;;;3.13;1.53;;;;;;;;;;7363567;19;161802;-14
2022/01/23 11:10:25;;;;;;;3.08;1.60;;;;;;;;;;7362912;19;162575;-13
2022/01/23 11:18:41;;;;;;;1.70;1.60;;;;;;;;;;7362431;19;161863;-14
2022/01/23 11:21:18;;;;;;;1.75;1.55;;;;;;;;;;7367207;19;162565;-15
2022/01/23 11:23:59;;;;;;;2.35;1.83;;;;;;;;;;7362616;19;153997;-15
2022/01/23 11:26:31;;;;;;;4.63;1.42;;;;;;;;;;7363866;19;153794;-14
2022/01/23 11:29:11;;;;;;;1.85;1.35;;;;;;;;;;7364669;19;162101;-14
2022/01/23 11:31:43;;;;;;;2.00;1.50;;;;;;;;;;7339949;19;162655;-14
2022/01/23 11:34:18;;;;;;;1.53;1.43;;;;;;;;;;7336991;19;154037;-15
2022/01/23 11:36:52;;;;;;;1.17;1.17;;;;;;;;;;7337107;19;153718;-14
2022/01/23 11:39:37;;;;;;;2.38;1.45;;;;;;;;;;7334993;19;161842;-13
2022/01/23 11:51:01;;;;;;;1.33;1.23;;;;;;;;;;7332568;19;161857;-13
2022/01/23 11:53:52;;;;;;;5.07;1.52;;;;;;;;;;7336289;19;162466;-14
2022/01/23 11:56:39;;;;;;;2.75;1.17;;;;;;;;;;7336633;19;153972;-13
2022/01/23 11:59:34;;;;;;;1.40;1.30;;;;;;;;;;7335142;19;153690;-14
2022/01/23 12:02:33;;;;;;;1.58;1.48;;;;;;;;;;7335210;19;161931;-14
2022/01/23 12:05:22;;;;;;;2.92;1.52;;;;;;;;;;7331839;19;164565;-13
2022/01/23 12:08:34;;;;;;;1.50;1.40;;;;;;;;;;7325964;19;153937;-15
2022/01/23 12:11:40;;;;;;;2.13;1.50;;;;;;;;;;7336654;19;153525;-13
2022/01/23 12:17:41;;;;;;;1.80;1.40;;;;;;;;;;7335935;19;162432;-14
2022/01/23 12:20:12;;;;;;;1.70;1.45;;;;;;;;;;7333139;19;154115;-13
2022/01/23 12:22:56;;;;;;;1.63;1.52;;;;;;;;;;7335111;19;153467;-13
2022/01/23 12:25:30;;;;;;;;;;;;;;;;;;7336883;19;161784;-13
2022/01/23 12:28:14;;;;;;;1.40;1.30;;;;;;;;;;7330914;19;162528;-14
2022/01/23 12:30:49;;;;;;;2.08;1.88;;;;;;;;;;7333827;19;153967;-14
2022/01/23 12:33:32;;;;;;;1.50;1.35;;;;;;;;;;7335152;19;153865;-14
2022/01/23 12:36:07;;;;;;;;;;;;;;;;;;7333063;19;162175;-13
2022/01/23 12:38:42;;;;;;;6.38;2.40;;;;;;;;;;7333883;19;162568;-16
2022/01/23 12:41:23;;;;;;;5.10;1.73;;;;;;;;;;7330183;19;154274;-15
2022/01/23 12:43:58;;;;;;;1.88;1.50;;;;;;;;;;7330270;19;153489;-14
2022/01/23 12:46:35;;;;;;;1.95;1.40;;;;;;;;;;7334684;19;162093;-13
2022/01/23 12:49:31;;;;;;;2.00;1.67;;;;;;;;;;7332313;19;162388;-13
2022/01/23 12:52:20;;;;;;;1.90;1.67;;;;;;;;;;7334376;19;154302;-15
2022/01/23 12:54:57;;;;;;;1.30;1.20;;;;;;;;;;7329344;19;153804;-15
2022/01/23 12:57:36;;;;;;;1.60;1.50;;;;;;;;;;7330140;19;161844;-13
2022/01/23 13:00:12;;;;;;;1.63;1.52;;;;;;;;;;7330538;19;162623;-15
2022/01/23 13:02:50;;;;;;;1.50;1.40;;;;;;;;;;7331575;19;154173;-13
2022/01/23 13:05:22;;;;;;;2.80;1.42;;;;;;;;;;7331415;19;154037;-15
2022/01/23 13:08:06;;;;;;;2.03;1.20;;;;;;;;;;7331917;19;161811;-13
2022/01/23 13:11:07;;;;;;;1.55;1.10;;;;;;;;;;7324554;19;162418;-13
2022/01/23 13:13:51;;;;;;;1.27;1.15;;;;;;;;;;7334045;19;154115;-15
2022/01/23 13:16:31;;;;;;;2.78;1.52;;;;;;;;;;7331202;19;153604;-13
2022/01/23 13:19:34;;;;;;;1.33;1.20;;;;;;;;;;7330834;19;161832;-15
2022/01/23 13:30:30;;;;;;;;;;;;;;;;;;7327857;19;161995;-14
2022/01/23 13:33:08;;;;;;;1.55;1.45;;;;;;;;;;7330242;19;162697;-16
2022/01/23 13:35:50;;;;;;;1.20;1.10;;;;;;;;;;7330270;19;154534;-14
2022/01/23 13:38:24;;;;;;;1.25;1.00;;;;;;;;;;7330356;19;153714;-13
2022/01/23 13:41:08;;;;;;;1.45;1.35;;;;;;;;;;7329258;19;161841;-13
2022/01/23 13:52:38;;;;;;;1.40;1.25;;;;;;;;;;7328761;19;161903;-14
2022/01/23 14:00:46;;;;;;;1.75;0.93;;;;;;;;;;7328140;19;153483;-13
2022/01/23 14:03:17;;;;;;;2.20;1.13;;;;;;;;;;7329481;19;161915;-14
2022/01/23 14:05:49;;;;;;;1.30;1.20;;;;;;;;;;7324766;19;162451;-15
2022/01/23 14:08:22;;;;;;;1.92;1.10;;;;;;;;;;7331938;19;154157;-15
2022/01/23 14:10:56;;;;;;;1.27;1.02;;;;;;;;;;7331071;19;153747;-16
2022/01/23 14:13:27;;;;;;;2.25;1.20;;;;;;;;;;7330780;19;161880;-15
2022/01/23 14:15:59;;;;;;;1.20;1.15;;;;;;;;;;7332791;19;162453;-13
2022/01/23 14:18:32;;;;;;;2.67;1.05;;;;;;;;;;7330038;19;153952;-13
2022/01/23 14:21:06;;;;;;;1.42;1.15;;;;;;;;;;7330341;19;153830;-13
2022/01/23 14:23:40;;;;;;;1.40;1.05;;;;;;;;;;7331797;19;161959;-14
2022/01/23 14:26:14;;;;;;;0.70;0.70;;;;;;;;;;7329075;19;162315;-13
2022/01/23 14:28:49;;;;;;;2.15;0.95;;;;;;;;;;7329707;19;153967;-12
2022/01/23 14:31:24;;;;;;;1.38;1.27;;;;;;;;;;7331391;19;153909;-13
2022/01/23 14:33:59;;;;;;;1.10;1.00;;;;;;;;;;7331884;19;161865;-13
2022/01/23 14:36:34;;;;;;;1.00;1.00;;;;;;;;;;7329119;19;162112;-13
2022/01/23 14:39:10;;;;;;;1.23;1.10;;;;;;;;;;7331874;19;154078;-13
2022/01/23 14:41:44;;;;;;;0.93;0.80;;;;;;;;;;7328342;19;153530;-13
2022/01/23 14:44:21;;;;;;;1.13;1.10;;;;;;;;;;7330499;19;161772;-12
2022/01/23 14:46:54;;;;;;;1.30;1.17;;;;;;;;;;7327968;19;162678;-12
2022/01/23 14:49:29;;;;;;;1.33;1.10;;;;;;;;;;7331104;19;153905;-13
2022/01/23 14:52:03;;;;;;;1.52;1.10;;;;;;;;;;7331678;19;153623;-12
2022/01/23 14:54:37;;;;;;;1.98;1.00;;;;;;;;;;7329054;19;161571;-14
2022/01/23 14:57:12;;;;;;;1.13;1.00;;;;;;;;;;7329648;19;162341;-14
2022/01/23 14:59:43;;;;;;;0.90;0.90;;;;;;;;;;7331312;19;153946;-13
2022/01/23 15:02:16;;;;;;;0.95;0.95;;;;;;;;;;7326924;19;153616;-17
2022/01/23 15:04:49;;;;;;;1.77;1.10;;;;;;;;;;7331433;19;162134;-13
2022/01/23 15:07:20;;;;;;;;;;;;;;;;;;7337066;19;162636;-13
2022/01/23 15:09:54;;;;;;;0.93;0.93;;;;;;;;;;7338656;19;154191;-13
2022/01/23 15:12:25;;;;;;;0.73;0.73;;;;;;;;;;7337829;19;153836;-14
2022/01/23 15:14:56;;;;;;;1.10;1.00;;;;;;;;;;7336394;19;161809;-14
2022/01/23 15:17:27;;;;;;;1.15;0.90;;;;;;;;;;7337227;19;162727;-14
2022/01/23 15:20:00;;;;;;;1.10;1.00;;;;;;;;;;7338334;19;154051;-14
2022/01/23 15:22:31;;;;;;;1.25;0.90;;;;;;;;;;7331337;19;153524;-14
2022/01/23 15:25:09;;;;;;;1.00;0.90;;;;;;;;;;7333896;19;161873;-13
2022/01/23 15:27:41;;;;;;;1.00;1.00;;;;;;;;;;7337181;19;162426;-13
2022/01/23 15:30:16;;;;;;;1.10;1.00;;;;;;;;;;7333520;19;153965;-14
2022/01/23 15:32:48;;;;;;;1.35;1.10;;;;;;;;;;7336461;19;153491;-13
2022/01/23 15:35:20;;;;;;;1.88;1.40;;;;;;;;;;7336339;19;161796;-13
2022/01/23 15:37:52;;;;;;;1.70;1.50;;;;;;;;;;7334206;19;163057;-13
2022/01/23 15:40:26;;;;;;;2.00;1.27;;;;;;;;;;7335724;19;154150;-14
2022/01/23 15:43:00;;;;;;;1.90;1.02;;;;;;;;;;7336297;19;154344;-14
2022/01/23 15:45:31;;;;;;;0.85;0.85;;;;;;;;;;7332598;19;161771;-13
2022/01/23 15:48:04;;;;;;;1.40;0.90;;;;;;;;;;7335467;19;162526;-13
2022/01/23 15:50:35;;;;;;;1.05;0.90;;;;;;;;;;7336552;19;154049;-13
2022/01/23 15:53:07;;;;;;;0.75;0.75;;;;;;;;;;7335159;19;154264;-13
2022/01/23 15:55:41;;;;;;;1.10;1.10;;;;;;;;;;7333101;19;161794;-14
2022/01/23 15:58:13;;;;;;;1.08;1.05;;;;;;;;;;7332888;19;162374;-14
2022/01/23 16:00:44;;;;;;;1.10;1.05;;;;;;;;;;7333370;19;154002;-13
2022/01/23 16:03:16;;;;;;;1.52;1.42;;;;;;;;;;7331748;19;153549;-13
2022/01/23 16:05:47;;;;;;;0.80;0.80;;;;;;;;;;7332974;19;162080;-13
2022/01/23 16:08:18;;;;;;;1.45;1.08;;;;;;;;;;7333087;19;162447;-14
2022/01/23 16:10:52;;;;;;;1.85;1.10;;;;;;;;;;7333550;19;153922;-14
2022/01/23 16:13:23;;;;;;;1.77;0.93;;;;;;;;;;7332911;19;153448;-14
2022/01/23 16:15:55;;;;;;;1.40;0.88;;;;;;;;;;7332614;19;162025;-15
2022/01/23 16:18:26;;;;;;;0.98;0.98;;;;;;;;;;7332095;19;162657;-13
2022/01/23 16:20:57;;;;;;;0.80;0.80;;;;;;;;;;7332748;19;153996;-13
2022/01/23 16:23:29;;;;;;;0.90;0.90;;;;;;;;;;7330986;19;153798;-13
2022/01/23 16:26:17;;;;;;;1.00;1.00;;;;;;;;;;7333265;19;161919;-14
2022/01/23 16:28:48;;;;;;;0.80;0.80;;;;;;;;;;7331555;19;162419;-14
2022/01/23 16:31:20;;;;;;;1.15;1.05;;;;;;;;;;7332533;19;154173;-15
2022/01/23 16:33:51;;;;;;;1.05;1.00;;;;;;;;;;7332229;19;153608;-14
2022/01/23 16:36:24;;;;;;;1.10;1.10;;;;;;;;;;7332040;19;161600;-14
2022/01/23 16:38:57;;;;;;;1.35;1.25;;;;;;;;;;7328825;19;162393;-15
2022/01/23 16:41:35;;;;;;;0.77;0.77;;;;;;;;;;7333310;19;153994;-14
2022/01/23 16:44:07;;;;;;;0.88;0.88;;;;;;;;;;7331577;19;153529;-14
2022/01/23 16:46:41;;;;;;;1.00;1.00;;;;;;;;;;7333333;19;162126;-15
2022/01/23 16:49:13;;;;;;;0.90;0.90;;;;;;;;;;7335610;19;162807;-15
2022/01/23 16:51:44;;;;;;;0.90;0.90;;;;;;;;;;7333046;19;153974;-14
2022/01/23 16:54:18;;;;;;;0.93;0.90;;;;;;;;;;7333813;19;153518;-14
2022/01/23 16:56:52;;;;;;;0.90;0.90;;;;;;;;;;7334449;19;161968;-14
2022/01/23 16:59:26;;;;;;;0.90;0.90;;;;;;;;;;7332189;19;162369;-15
2022/01/23 17:02:00;;;;;;;0.70;0.70;;;;;;;;;;7333355;19;154192;-15
2022/01/23 17:04:33;;;;;;;1.00;1.00;;;;;;;;;;7331994;19;153925;-14
2022/01/23 17:07:05;;;;;;;0.80;0.80;;;;;;;;;;7334979;19;161751;-14
2022/01/23 17:09:37;;;;;;;0.82;0.82;;;;;;;;;;7327615;19;162876;-13
2022/01/23 17:12:12;;;;;;;0.93;0.90;;;;;;;;;;7333388;19;153929;-15
2022/01/23 17:14:43;;;;;;;2.38;1.10;;;;;;;;;;7330304;19;153659;-14
2022/01/23 17:17:14;;;;;;;1.33;0.80;;;;;;;;;;7328394;19;161844;-15
2022/01/23 17:19:46;;;;;;;1.05;1.02;;;;;;;;;;7330793;19;162247;-15
2022/01/23 17:22:18;;;;;;;0.93;0.93;;;;;;;;;;7333769;19;154061;-15
2022/01/23 17:24:49;;;;;;;1.40;1.10;;;;;;;;;;7332439;19;153523;-15
2022/01/23 17:27:25;;;;;;;;;;;;;;;;;;7333757;19;161951;-14
2022/01/23 17:29:56;;;;;;;2.22;1.00;;;;;;;;;;7328323;19;162480;-14
2022/01/23 17:32:28;;;;;;;0.90;0.90;;;;;;;;;;7333131;19;154148;-15
2022/01/23 17:35:13;;;;;;;0.88;0.88;;;;;;;;;;7330431;19;153512;-14
2022/01/23 17:37:45;;;;;;;1.10;1.00;;;;;;;;;;7330195;19;161912;-14
2022/01/23 17:40:17;;;;;;;0.80;0.80;;;;;;;;;;7330222;19;162530;-14
2022/01/23 17:42:51;;;;;;;1.08;1.00;;;;;;;;;;7334479;19;154176;-14
2022/01/23 17:45:28;;;;;;;1.27;1.00;;;;;;;;;;7328722;19;153507;-14
2022/01/23 17:48:18;;;;;;;0.90;0.90;;;;;;;;;;7332589;19;161907;-20
2022/01/23 17:50:50;;;;;;;1.05;0.90;;;;;;;;;;7332769;19;162645;-15
2022/01/23 17:53:24;;;;;;;1.27;0.90;;;;;;;;;;7332785;19;153996;-15
2022/01/23 17:55:56;;;;;;;1.00;0.90;;;;;;;;;;7330166;19;153833;-14
2022/01/23 17:58:30;;;;;;;0.95;0.82;;;;;;;;;;7333116;19;161900;-15
2022/01/23 18:01:01;;;;;;;1.63;1.20;;;;;;;;;;7329632;19;162376;-15
2022/01/23 18:03:33;;;;;;;1.23;0.90;;;;;;;;;;7329128;19;153976;-14
2022/01/23 18:06:12;;;;;;;1.50;0.85;;;;;;;;;;7329884;19;153753;-13
2022/01/23 18:08:43;;;;;;;2.25;1.10;;;;;;;;;;7329321;19;161947;-13
2022/01/23 18:11:14;;;;;;;1.65;1.10;;;;;;;;;;7330418;19;162323;-15
2022/01/23 18:13:57;;;;;;;0.82;0.70;;;;;;;;;;7329128;19;153975;-16
2022/01/23 18:16:31;;;;;;;1.48;0.82;;;;;;;;;;7330091;19;153652;-14
2022/01/23 18:19:03;;;;;;;0.90;0.77;;;;;;;;;;7332362;19;162088;-14
2022/01/23 18:21:54;;;;;;;1.38;0.85;;;;;;;;;;7329346;19;162564;-14
2022/01/23 18:24:25;;;;;;;1.33;0.85;;;;;;;;;;7330558;19;153985;-16
2022/01/23 18:26:57;;;;;;;1.52;0.80;;;;;;;;;;7331446;19;153606;-14
2022/01/23 18:29:31;;;;;;;1.00;1.00;;;;;;;;;;7327355;19;161788;-13
2022/01/23 18:32:06;;;;;;;0.82;0.82;;;;;;;;;;7328652;19;162530;-14
2022/01/23 18:34:37;;;;;;;1.52;0.88;;;;;;;;;;7328937;19;154117;-15
2022/01/23 18:37:08;;;;;;;0.80;0.80;;;;;;;;;;7328707;19;153317;-14
2022/01/23 18:39:40;;;;;;;1.00;1.00;;;;;;;;;;7331442;19;161945;-14
2022/01/23 18:42:12;;;;;;;1.00;0.85;;;;;;;;;;7337298;19;162332;-14
2022/01/23 18:44:47;;;;;;;1.10;1.00;;;;;;;;;;7336102;19;154181;-14
2022/01/23 18:47:18;;;;;;;0.98;0.98;;;;;;;;;;7337801;19;153886;-14
2022/01/23 18:49:50;;;;;;;1.50;0.90;;;;;;;;;;7337940;19;161832;-14
2022/01/23 18:52:21;;;;;;;0.80;0.80;;;;;;;;;;7338628;19;162407;-14
2022/01/23 18:54:57;;;;;;;1.40;1.17;;;;;;;;;;7338331;19;154326;-14
2022/01/23 18:57:46;;;;;;;2.53;1.17;;;;;;;;;;7338806;19;153542;-14
2022/01/23 19:00:20;;;;;;;0.70;0.70;;;;;;;;;;7334599;19;161884;-14
2022/01/23 19:02:55;;;;;;;2.15;1.00;;;;;;;;;;7336516;19;162497;-15
2022/01/23 19:05:29;;;;;;;1.00;1.00;;;;;;;;;;7336039;19;153961;-15
2022/01/23 19:08:04;;;;;;;1.00;1.00;;;;;;;;;;7337453;19;153844;-16
2022/01/23 19:10:39;;;;;;;0.90;0.90;;;;;;;;;;7334198;19;161981;-12
2022/01/23 19:13:14;;;;;;;0.95;0.95;;;;;;;;;;7335990;19;162285;-14
2022/01/23 19:15:50;;;;;;;0.90;0.90;;;;;;;;;;7334489;19;154064;-14
2022/01/23 19:18:24;;;;;;;1.75;1.20;;;;;;;;;;7337938;19;153486;-13
2022/01/23 19:20:55;;;;;;;1.65;1.15;;;;;;;;;;7333891;19;162085;-13
2022/01/23 19:23:27;;;;;;;0.95;0.95;;;;;;;;;;7333725;19;162377;-17
2022/01/23 19:25:58;;;;;;;1.65;0.98;;;;;;;;;;7336513;19;153943;-14
2022/01/23 19:28:29;;;;;;;1.38;1.27;;;;;;;;;;7333990;19;153278;-15
2022/01/23 19:31:04;;;;;;;0.90;0.82;;;;;;;;;;7333325;19;162040;-14
2022/01/23 19:33:36;;;;;;;1.10;1.08;;;;;;;;;;7338105;19;162345;-14
2022/01/23 19:36:08;;;;;;;0.80;0.80;;;;;;;;;;7333770;19;154089;-13
2022/01/23 19:38:39;;;;;;;1.42;1.10;;;;;;;;;;7333390;19;153554;-14
2022/01/23 19:41:14;;;;;;;1.02;0.95;;;;;;;;;;7333405;19;161832;-15
2022/01/23 19:43:55;;;;;;;0.90;0.90;;;;;;;;;;7336455;19;162757;-13
2022/01/23 19:46:32;;;;;;;0.93;0.93;;;;;;;;;;7335510;19;153928;-15
2022/01/23 19:49:07;;;;;;;1.08;1.08;;;;;;;;;;7333668;19;153801;-14
2022/01/23 19:51:38;;;;;;;1.83;1.25;;;;;;;;;;7330766;19;161795;-13
2022/01/23 19:54:12;;;;;;;1.40;1.20;;;;;;;;;;7335096;19;162620;-14
2022/01/23 19:56:44;;;;;;;159.48;88.85;;;;;;;;;;7334237;19;154111;-14
2022/01/23 19:59:15;;;;;;;167.52;100.97;;;;;;;;;;7332948;19;153636;-14
2022/01/23 20:01:49;;;;;;;213.80;124.90;;;;;;;;;;7333097;19;162078;-15
2022/01/23 20:04:20;;;;;;;211.32;125.22;;;;;;;;;;7332397;19;162409;-14
2022/01/23 20:06:51;;;;;;;197.00;110.63;;;;;;;;;;7329624;19;154002;-14
2022/01/23 20:09:23;;;;;;;172.88;104.72;;;;;;;;;;7334956;19;153801;-15
2022/01/23 20:14:38;;;;;;;141.55;85.53;;;;;;;;;;7334322;19;162323;-14
2022/01/23 20:17:13;;;;;;;151.20;85.13;;;;;;;;;;7336328;19;153884;-14
2022/01/23 20:19:44;;;;;;;136.18;82.55;;;;;;;;;;7337028;19;153810;-14
2022/01/23 20:22:16;;;;;;;141.52;85.15;;;;;;;;;;7332298;19;161886;-14
2022/01/23 20:24:47;;;;;;;136.27;84.90;;;;;;;;;;7331896;19;162587;-14
2022/01/23 20:27:18;;;;;;;142.95;85.05;;;;;;;;;;7336794;19;154056;-14
2022/01/23 20:29:50;;;;;;;138.20;82.90;;;;;;;;;;7330727;19;153647;-13
2022/01/23 20:32:28;;;;;;;141.23;82.25;;;;;;;;;;7334779;19;162093;-15
2022/01/23 20:35:00;;;;;;;133.88;79.15;;;;;;;;;;7334890;19;162518;-14
2022/01/23 20:37:32;;;;;;;131.13;81.22;;;;;;;;;;7335948;19;154187;-14
2022/01/23 20:40:04;;;;;;;122.70;76.63;;;;;;;;;;7335524;19;153901;-15
2022/01/23 20:42:35;;;;;;;124.93;75.35;;;;;;;;;;7334721;19;162080;-14
2022/01/23 20:45:07;;;;;;;122.80;75.00;;;;;;;;;;7334844;19;162537;-15
2022/01/23 20:47:43;;;;;;;122.40;74.05;;;;;;;;;;7334923;19;154325;-14
2022/01/23 20:50:18;;;;;;;121.88;74.00;;;;;;;;;;7336197;19;153595;-14
2022/01/23 20:53:05;;;;;;;116.38;72.20;;;;;;;;;;7331998;19;162104;-14
2022/01/23 20:55:37;;;;;;;114.35;72.03;;;;;;;;;;7331517;19;162504;-14
2022/01/23 20:58:09;;;;;;;115.07;70.57;;;;;;;;;;7330971;19;154059;-14
2022/01/23 21:00:40;;;;;;;116.22;70.78;;;;;;;;;;7334749;19;153869;-14
2022/01/23 21:03:14;;;;;;;113.22;72.38;;;;;;;;;;7331792;19;161834;-15
2022/01/23 21:05:46;;;;;;;118.18;73.88;;;;;;;;;;7333643;19;162455;-15
2022/01/23 21:08:17;;;;;;;105.63;67.82;;;;;;;;;;7333917;19;154091;-15
2022/01/23 21:10:48;;;;;;;108.65;70.00;;;;;;;;;;7333783;19;153634;-16
2022/01/23 21:13:22;;;;;;;110.25;70.55;;;;;;;;;;7331332;19;161875;-15
2022/01/23 21:21:45;;;;;;;105.30;66.97;;;;;;;;;;7331579;19;153622;-14
2022/01/23 21:33:04;;;;;;;98.20;61.85;;;;;;;;;;7333349;19;153721;-14
2022/01/23 21:41:05;;;;;;;;;;;;;;;;;;7333090;19;154147;-14
2022/01/23 21:43:37;;;;;;;92.68;60.95;;;;;;;;;;7333981;19;153301;-16
2022/01/23 21:46:09;;;;;;;83.72;56.97;;;;;;;;;;7332323;19;161947;-15
2022/01/23 21:48:40;;;;;;;90.20;58.72;;;;;;;;;;7331858;19;162409;-14
2022/01/23 21:51:15;;;;;;;85.90;55.37;;;;;;;;;;7333689;19;153775;-16
2022/01/23 21:53:46;;;;;;;90.78;57.63;;;;;;;;;;7331604;19;153769;-14
2022/01/23 21:56:19;;;;;;;87.03;58.72;;;;;;;;;;7332231;19;161963;-16
2022/01/23 21:58:52;;;;;;;84.70;57.97;;;;;;;;;;7332035;19;162611;-14
2022/01/23 22:01:24;;;;;;;82.85;55.92;;;;;;;;;;7332449;19;153953;-14
2022/01/23 22:03:55;;;;;;;85.80;55.63;;;;;;;;;;7332906;19;153800;-14
2022/01/23 22:06:29;;;;;;;89.43;57.38;;;;;;;;;;7329696;19;161914;-14
2022/01/23 22:09:04;;;;;;;78.68;55.03;;;;;;;;;;7331574;19;162695;-14
2022/01/23 22:11:54;;;;;;;79.45;52.80;;;;;;;;;;7332156;19;154223;-14
2022/01/23 22:17:10;;;;;;;76.00;51.83;;;;;;;;;;7329932;19;161754;-14
2022/01/23 22:19:55;;;;;;;79.90;54.00;;;;;;;;;;7330567;19;162436;-15
2022/01/23 22:22:46;;;;;;;78.55;54.42;;;;;;;;;;7331151;19;154084;-15
2022/01/23 22:28:01;;;;;;;78.38;54.17;;;;;;;;;;7329300;19;161813;-13
2022/01/23 22:30:33;;;;;;;79.07;52.65;;;;;;;;;;7329115;19;162514;-14
2022/01/23 22:33:04;;;;;;;74.55;50.90;;;;;;;;;;7330773;19;154127;-14
2022/01/23 22:35:35;;;;;;;69.88;49.47;;;;;;;;;;7332502;19;153813;-14
2022/01/23 22:38:09;;;;;;;71.40;50.58;;;;;;;;;;7331000;19;162062;-14
2022/01/23 22:40:41;;;;;;;68.20;49.22;;;;;;;;;;7330556;19;162533;-15
2022/01/23 22:43:19;;;;;;;70.10;47.35;;;;;;;;;;7332127;19;153889;-14
2022/01/23 22:46:10;;;;;;;75.85;51.80;;;;;;;;;;7331546;19;153546;-15
2022/01/23 22:48:41;;;;;;;71.10;48.65;;;;;;;;;;7328496;19;161865;-15
2022/01/23 22:51:13;;;;;;;68.93;47.60;;;;;;;;;;7330911;19;162431;-15
2022/01/23 22:53:47;;;;;;;64.85;46.35;;;;;;;;;;7329856;19;154023;-15
2022/01/23 22:56:19;;;;;;;68.55;47.72;;;;;;;;;;7330759;19;153876;-16
2022/01/23 22:58:51;;;;;;;62.60;46.28;;;;;;;;;;7329215;19;162093;-16
2022/01/23 23:01:23;;;;;;;64.80;45.13;;;;;;;;;;7328932;19;162428;-13
2022/01/23 23:03:55;;;;;;;62.63;45.45;;;;;;;;;;7331776;19;154016;-15
2022/01/23 23:06:27;;;;;;;62.78;44.50;;;;;;;;;;7326871;19;153638;-15
2022/01/23 23:09:01;;;;;;;63.40;44.27;;;;;;;;;;7330814;19;161799;-15
2022/01/23 23:11:32;;;;;;;63.38;44.63;;;;;;;;;;7328021;19;162362;-14
2022/01/23 23:14:04;;;;;;;64.80;45.53;;;;;;;;;;7331822;19;153982;-15
2022/01/23 23:16:45;;;;;;;59.42;44.42;;;;;;;;;;7331819;19;153727;-15
2022/01/23 23:19:16;;;;;;;63.15;44.22;;;;;;;;;;7327044;19;162040;-14
2022/01/23 23:21:47;;;;;;;61.35;44.50;;;;;;;;;;7326444;19;162144;-15
2022/01/23 23:24:24;;;;;;;60.33;44.42;;;;;;;;;;7331525;19;154201;-15
2022/01/23 23:26:56;;;;;;;65.22;44.80;;;;;;;;;;7330778;19;153628;-15
2022/01/23 23:29:30;;;;;;;59.80;43.28;;;;;;;;;;7332829;19;161806;-14
2022/01/23 23:32:02;;;;;;;59.92;44.92;;;;;;;;;;7333182;19;162468;-15
2022/01/23 23:34:33;;;;;;;59.97;43.30;;;;;;;;;;7334039;19;154095;-14
2022/01/23 23:37:05;;;;;;;57.80;41.40;;;;;;;;;;7336721;19;153576;-15
2022/01/23 23:39:43;;;;;;;61.17;42.65;;;;;;;;;;7336374;19;161767;-14
2022/01/23 23:42:19;;;;;;;59.05;43.42;;;;;;;;;;7336388;19;162508;-15
2022/01/23 23:44:58;;;;;;;54.55;41.13;;;;;;;;;;7335894;19;153783;-15
2022/01/23 23:47:31;;;;;;;57.22;41.83;;;;;;;;;;7335124;19;153672;-14
2022/01/23 23:50:02;;;;;;;;;;;;;;;;;;7337529;19;161824;-15
2022/01/23 23:52:40;;;;;;;53.30;39.70;;;;;;;;;;7334942;19;162550;-14
2022/01/23 23:55:15;;;;;;;54.88;39.08;;;;;;;;;;7337507;19;154032;-13
2022/01/23 23:57:48;;;;;;;55.67;40.60;;;;;;;;;;7337153;19;153702;-15
